Time;durP1;ratioP1;P1;durP2;ratioP2;P2;SDS_P1;SDS_P2;PMS_P1;PMS_P2;Temp;Humidity;BMP_temperature;BMP_pressure;BME280_temperature;BME280_humidity;BME280_pressure;Samples;Min_cycle;Max_cycle;Signal;HPM_P1;HPM_P2
2022/01/03 00:03:35;;;;;;;1.30;1.07;;;17.50;70.60;;;;;;10412716;28;20205;-66
2022/01/03 00:08:57;;;;;;;1.93;0.80;;;17.50;70.60;;;;;;10412656;28;20228;-66
2022/01/03 00:14:24;;;;;;;1.00;0.60;;;17.50;70.60;;;;;;10413092;28;20194;-66
2022/01/03 00:19:46;;;;;;;1.90;0.93;;;17.50;70.60;;;;;;10376504;28;20206;-66
2022/01/03 00:25:15;;;;;;;1.20;1.00;;;17.50;70.60;;;;;;10412150;28;20723;-66
2022/01/03 00:30:39;;;;;;;1.53;0.90;;;17.50;70.60;;;;;;10412516;28;20394;-65
2022/01/03 00:36:04;;;;;;;1.30;0.97;;;17.50;70.60;;;;;;10411300;28;20198;-66
2022/01/03 00:41:27;;;;;;;1.10;0.87;;;17.50;70.60;;;;;;10411647;28;20210;-65
2022/01/03 00:46:52;;;;;;;0.90;0.80;;;17.50;71.10;;;;;;10409817;28;20208;-65
2022/01/03 00:52:14;;;;;;;1.00;0.90;;;17.50;70.50;;;;;;10410510;28;20220;-65
2022/01/03 00:58:03;;;;;;;1.50;0.87;;;17.50;70.50;;;;;;10410426;28;20197;-65
2022/01/03 01:03:34;;;;;;;0.80;0.60;;;17.50;70.40;;;;;;10409394;28;20198;-65
2022/01/03 01:08:57;;;;;;;0.90;0.80;;;17.50;70.50;;;;;;10409195;28;20218;-65
2022/01/03 01:14:21;;;;;;;1.27;0.70;;;17.50;70.50;;;;;;10410444;28;20202;-65
2022/01/03 01:19:45;;;;;;;1.33;0.53;;;17.50;70.50;;;;;;10410124;28;20694;-65
2022/01/03 01:25:25;;;;;;;0.77;0.67;;;17.50;70.50;;;;;;10410039;28;20198;-66
2022/01/03 01:30:51;;;;;;;1.37;0.87;;;17.50;71.00;;;;;;10409023;28;20716;-65
2022/01/03 01:36:15;;;;;;;1.67;1.00;;;17.50;70.50;;;;;;10407538;28;20760;-65
2022/01/03 01:41:43;;;;;;;1.07;0.73;;;17.50;70.40;;;;;;10402287;28;20293;-65
2022/01/03 01:47:07;;;;;;;1.37;0.67;;;17.50;70.30;;;;;;10392720;28;20206;-66
2022/01/03 01:52:36;;;;;;;1.07;0.70;;;17.50;70.30;;;;;;10401603;28;20225;-67
2022/01/03 01:58:04;;;;;;;0.57;0.50;;;17.50;70.30;;;;;;10402906;28;20224;-66
2022/01/03 02:03:37;;;;;;;0.60;0.50;;;17.50;70.20;;;;;;10400488;28;20193;-65
2022/01/03 02:09:06;;;;;;;1.43;0.70;;;17.50;70.20;;;;;;10401631;28;20218;-67
2022/01/03 02:14:36;;;;;;;0.73;0.57;;;17.50;70.20;;;;;;10402043;28;20190;-66
2022/01/03 02:20:07;;;;;;;1.23;0.60;;;17.50;70.20;;;;;;10401632;28;20270;-65
2022/01/03 02:25:29;;;;;;;0.93;0.50;;;17.50;70.10;;;;;;10406227;28;20213;-66
2022/01/03 02:30:53;;;;;;;0.93;0.60;;;17.50;70.20;;;;;;10399748;28;20225;-66
2022/01/03 02:36:17;;;;;;;0.60;0.60;;;17.50;70.10;;;;;;10401058;28;20209;-65
2022/01/03 02:41:39;;;;;;;1.30;0.53;;;17.50;70.20;;;;;;10400059;28;20220;-65
2022/01/03 02:47:01;;;;;;;0.90;0.60;;;17.50;70.10;;;;;;10400080;28;20200;-65
2022/01/03 02:52:25;;;;;;;0.80;0.50;;;17.50;70.10;;;;;;10400983;28;20225;-66
2022/01/03 02:57:49;;;;;;;0.73;0.53;;;17.50;70.10;;;;;;10401677;28;20225;-66
2022/01/03 03:03:11;;;;;;;0.43;0.43;;;17.50;70.10;;;;;;10400443;28;20190;-66
2022/01/03 03:08:36;;;;;;;1.13;0.60;;;17.50;70.10;;;;;;10400264;28;20213;-66
2022/01/03 03:13:58;;;;;;;0.70;0.53;;;17.50;70.10;;;;;;10401388;28;20210;-65
2022/01/03 03:19:20;;;;;;;0.53;0.50;;;17.50;70.10;;;;;;10408009;28;20210;-65
2022/01/03 03:24:44;;;;;;;0.30;0.30;;;17.50;70.10;;;;;;10413521;28;20197;-65
2022/01/03 03:30:07;;;;;;;0.63;0.40;;;17.50;70.00;;;;;;10410159;28;20224;-65
2022/01/03 03:35:30;;;;;;;0.70;0.60;;;17.50;70.00;;;;;;10410049;28;20201;-65
2022/01/03 03:40:54;;;;;;;0.47;0.40;;;17.50;70.00;;;;;;10413809;28;20221;-65
2022/01/03 03:46:16;;;;;;;1.00;0.50;;;17.50;70.00;;;;;;10414560;28;20220;-65
2022/01/03 03:51:38;;;;;;;1.53;0.50;;;17.50;70.00;;;;;;10413500;28;20784;-66
2022/01/03 03:57:03;;;;;;;0.50;0.37;;;17.50;70.00;;;;;;10413371;28;20205;-65
2022/01/03 04:02:26;;;;;;;1.10;0.47;;;17.50;70.10;;;;;;10412999;28;20288;-65
2022/01/03 04:07:48;;;;;;;0.80;0.43;;;17.50;70.00;;;;;;10412570;28;20221;-65
2022/01/03 04:13:11;;;;;;;0.80;0.33;;;17.50;70.00;;;;;;10413456;28;20220;-65
2022/01/03 04:18:33;;;;;;;0.80;0.60;;;17.50;70.00;;;;;;10412515;28;20583;-65
2022/01/03 04:23:56;;;;;;;2.00;0.50;;;17.50;70.00;;;;;;10413286;28;20186;-65
2022/01/03 04:29:19;;;;;;;0.57;0.50;;;17.50;70.00;;;;;;10424893;22;21643;-69
2022/01/03 04:34:42;;;;;;;1.20;0.70;;;17.50;70.00;;;;;;10442170;28;20193;-68
2022/01/03 04:40:05;;;;;;;0.60;0.40;;;17.50;70.00;;;;;;10411559;28;20308;-68
2022/01/03 04:45:29;;;;;;;0.87;0.60;;;17.50;70.00;;;;;;10399859;28;20198;-68
2022/01/03 04:50:51;;;;;;;1.53;0.70;;;17.50;69.90;;;;;;10405687;28;20222;-68
2022/01/03 04:56:15;;;;;;;1.10;0.47;;;17.50;69.80;;;;;;10411731;28;20209;-68
2022/01/03 05:01:38;;;;;;;1.17;0.60;;;17.50;69.80;;;;;;10412410;28;20210;-68
2022/01/03 05:07:00;;;;;;;2.63;0.70;;;17.50;69.80;;;;;;10411245;28;20660;-68
2022/01/03 05:12:22;;;;;;;1.30;0.40;;;17.50;69.80;;;;;;10411411;28;20592;-69
2022/01/03 05:17:46;;;;;;;1.73;0.60;;;17.50;69.80;;;;;;10411122;28;20213;-69
2022/01/03 05:23:08;;;;;;;0.97;0.80;;;17.60;69.90;;;;;;10396972;28;20223;-68
2022/01/03 05:28:30;;;;;;;1.50;0.60;;;17.60;70.50;;;;;;10370159;28;20789;-69
2022/01/03 05:33:54;;;;;;;1.30;0.50;;;17.60;69.80;;;;;;10395920;28;20224;-68
2022/01/03 05:39:16;;;;;;;1.30;0.60;;;17.60;69.80;;;;;;10409653;28;20225;-69
2022/01/03 05:44:38;;;;;;;1.67;0.80;;;17.60;69.70;;;;;;10409955;28;20194;-68
2022/01/03 05:50:01;;;;;;;0.80;0.40;;;17.60;69.70;;;;;;10409630;28;20222;-68
2022/01/03 05:55:24;;;;;;;1.67;0.40;;;17.60;69.70;;;;;;10403166;28;20201;-68
2022/01/03 06:00:46;;;;;;;1.77;0.50;;;17.60;69.70;;;;;;10398779;28;20237;-68
2022/01/03 06:06:31;;;;;;;0.47;0.33;;;17.60;69.70;;;;;;10408474;28;20623;-68
2022/01/03 06:11:54;;;;;;;1.37;0.50;;;17.60;69.70;;;;;;10400482;28;20217;-68
2022/01/03 06:17:17;;;;;;;0.93;0.50;;;17.60;69.70;;;;;;10405949;28;20202;-68
2022/01/03 06:22:41;;;;;;;2.33;0.70;;;17.60;69.70;;;;;;10406414;28;20209;-69
2022/01/03 06:28:07;;;;;;;0.83;0.37;;;17.70;69.70;;;;;;10409080;28;20213;-69
2022/01/03 06:33:29;;;;;;;0.30;0.30;;;17.60;69.70;;;;;;10408777;28;20586;-69
2022/01/03 06:38:52;;;;;;;1.30;0.70;;;17.60;69.70;;;;;;10407841;28;20214;-69
2022/01/03 06:44:14;;;;;;;1.10;0.80;;;17.60;69.70;;;;;;10408085;28;20191;-68
2022/01/03 06:49:37;;;;;;;1.57;0.50;;;17.70;69.80;;;;;;10410214;28;20222;-69
2022/01/03 06:55:00;;;;;;;1.30;0.70;;;17.60;69.70;;;;;;10409015;28;20205;-69
2022/01/03 07:00:23;;;;;;;1.90;0.80;;;17.60;69.70;;;;;;10414955;28;20614;-68
2022/01/03 07:05:45;;;;;;;0.60;0.50;;;17.60;69.70;;;;;;10415713;28;20198;-68
2022/01/03 07:11:08;;;;;;;1.47;0.60;;;17.60;69.70;;;;;;10414647;28;20599;-69
2022/01/03 07:22:12;;;;;;;1.47;0.70;;;17.70;69.70;;;;;;10402124;28;20260;-69
2022/01/03 07:27:35;;;;;;;2.17;0.73;;;17.60;70.00;;;;;;10415223;28;20208;-69
2022/01/03 07:32:58;;;;;;;1.43;0.50;;;17.60;69.90;;;;;;10396807;28;20241;-69
2022/01/03 07:38:20;;;;;;;1.47;0.70;;;17.60;70.00;;;;;;10405575;28;20222;-69
2022/01/03 07:43:45;;;;;;;1.83;0.90;;;17.60;70.00;;;;;;10407342;28;20193;-68
2022/01/03 07:49:07;;;;;;;1.33;0.70;;;17.60;70.10;;;;;;10390600;28;20249;-69
2022/01/03 07:54:29;;;;;;;2.27;0.50;;;17.60;70.20;;;;;;10412143;28;20210;-68
2022/01/03 07:59:53;;;;;;;3.13;1.10;;;17.60;70.20;;;;;;10414139;28;20233;-69
2022/01/03 08:05:16;;;;;;;1.50;0.70;;;17.60;70.20;;;;;;10411402;28;20196;-67
2022/01/03 08:10:40;;;;;;;2.50;0.90;;;17.60;70.20;;;;;;10411255;28;20237;-67
2022/01/03 08:16:04;;;;;;;1.43;0.70;;;17.60;70.10;;;;;;10412463;28;20212;-70
2022/01/03 08:21:26;;;;;;;1.30;0.77;;;17.70;70.20;;;;;;10411095;28;20245;-70
2022/01/03 08:26:49;;;;;;;3.37;0.90;;;17.60;70.70;;;;;;10410396;28;20201;-68
2022/01/03 08:32:12;;;;;;;2.30;0.80;;;17.70;70.20;;;;;;10413232;28;20225;-69
2022/01/03 08:37:35;;;;;;;2.27;0.80;;;17.70;70.20;;;;;;10409992;28;20189;-69
2022/01/03 08:42:57;;;;;;;3.10;1.13;;;17.60;70.20;;;;;;10412408;28;20190;-68
2022/01/03 08:48:22;;;;;;;4.67;0.90;;;17.60;70.30;;;;;;10410970;28;20210;-68
2022/01/03 08:53:44;;;;;;;2.77;1.23;;;17.60;70.40;;;;;;10410560;28;20220;-68
2022/01/03 08:59:06;;;;;;;3.43;1.10;;;17.60;70.50;;;;;;10415448;28;20598;-68
2022/01/03 09:04:30;;;;;;;3.23;0.97;;;17.60;70.60;;;;;;10409893;28;20182;-68
2022/01/03 09:09:52;;;;;;;2.07;0.90;;;17.60;70.60;;;;;;10409812;28;20224;-68
2022/01/03 09:15:14;;;;;;;2.40;1.00;;;17.60;70.70;;;;;;10408315;28;20225;-68
2022/01/03 09:20:38;;;;;;;1.97;0.70;;;17.60;70.80;;;;;;10408162;28;20687;-68
2022/01/03 09:31:40;;;;;;;2.80;1.03;;;17.60;70.90;;;;;;10384736;28;20229;-70
2022/01/03 09:37:05;;;;;;;3.83;0.97;;;17.60;71.00;;;;;;10391751;28;20212;-71
2022/01/03 09:42:29;;;;;;;2.43;0.90;;;17.70;71.10;;;;;;10386933;28;20214;-70
2022/01/03 09:47:54;;;;;;;3.57;1.10;;;17.70;71.10;;;;;;10389825;28;20940;-71
2022/01/03 09:53:21;;;;;;;2.63;1.00;;;17.60;71.10;;;;;;10392624;28;20568;-71
2022/01/03 09:58:43;;;;;;;2.13;0.90;;;17.70;71.10;;;;;;10399119;28;20225;-70
2022/01/03 10:04:09;;;;;;;4.33;0.90;;;17.70;71.20;;;;;;10394365;28;20201;-68
2022/01/03 10:09:34;;;;;;;1.77;0.80;;;17.70;71.20;;;;;;10397926;28;20249;-68
2022/01/03 10:14:58;;;;;;;3.50;1.00;;;17.70;71.30;;;;;;10388639;28;20936;-70
2022/01/03 10:20:20;;;;;;;2.60;1.00;;;17.60;71.30;;;;;;10385575;28;20214;-69
2022/01/03 10:25:46;;;;;;;3.20;0.83;;;17.60;71.30;;;;;;10392637;28;20205;-68
2022/01/03 10:31:15;;;;;;;1.63;0.70;;;17.70;71.30;;;;;;10420861;22;20229;-70
2022/01/03 10:36:39;;;;;;;1.87;0.90;;;17.70;71.20;;;;;;10394526;28;20194;-70
2022/01/03 10:42:15;;;;;;;1.77;0.80;;;17.70;71.10;;;;;;10407508;28;20218;-68
2022/01/03 10:47:41;;;;;;;1.97;1.00;;;17.70;70.90;;;;;;10392019;28;20550;-69
2022/01/03 10:53:03;;;;;;;2.37;0.97;;;17.70;71.00;;;;;;10401968;28;20774;-71
2022/01/03 10:58:33;;;;;;;2.40;0.70;;;17.80;71.00;;;;;;10395856;28;20190;-70
2022/01/03 11:03:58;;;;;;;2.87;1.20;;;17.80;70.90;;;;;;10393152;28;20765;-70
2022/01/03 11:15:20;;;;;;;3.33;1.00;;;17.80;70.80;;;;;;10385204;28;20708;-71
2022/01/03 11:20:44;;;;;;;3.43;1.00;;;17.80;70.60;;;;;;10400036;28;20197;-71
2022/01/03 11:26:12;;;;;;;3.03;0.97;;;17.80;70.80;;;;;;10395523;28;20577;-71
2022/01/03 11:31:38;;;;;;;2.27;0.87;;;17.80;70.70;;;;;;10390424;28;20218;-71
2022/01/03 11:37:04;;;;;;;3.20;0.97;;;17.80;70.60;;;;;;10383400;28;20197;-71
2022/01/03 11:42:27;;;;;;;2.13;0.93;;;17.80;70.60;;;;;;10376701;28;20210;-71
2022/01/03 11:47:52;;;;;;;2.63;0.83;;;17.80;70.60;;;;;;10389734;28;20199;-70
2022/01/03 11:53:20;;;;;;;2.20;0.73;;;17.80;70.60;;;;;;10390759;28;20233;-71
2022/01/03 11:58:53;;;;;;;1.77;0.70;;;17.80;70.60;;;;;;10387562;28;20199;-71
2022/01/03 12:04:19;;;;;;;1.60;0.50;;;17.80;70.60;;;;;;10401245;28;20749;-71
2022/01/03 12:09:47;;;;;;;2.77;0.83;;;17.80;70.50;;;;;;10390504;28;20194;-71
2022/01/03 12:15:31;;;;;;;2.10;0.80;;;17.80;70.50;;;;;;10386068;28;20230;-69
2022/01/03 12:20:55;;;;;;;3.63;1.30;;;17.80;70.20;;;;;;10387419;28;20213;-71
2022/01/03 12:26:19;;;;;;;2.43;1.00;;;17.80;70.50;;;;;;10403658;28;20600;-70
2022/01/03 12:32:12;;;;;;;2.57;0.90;;;17.80;70.50;;;;;;10378895;28;20218;-70
2022/01/03 12:37:38;;;;;;;2.20;0.97;;;17.80;70.20;;;;;;10374459;28;20206;-70
2022/01/03 12:43:02;;;;;;;2.90;0.90;;;17.80;70.50;;;;;;10373480;28;20225;-71
2022/01/03 12:48:25;;;;;;;1.23;0.63;;;17.80;70.50;;;;;;10398842;28;20201;-69
2022/01/03 12:53:50;;;;;;;1.40;0.87;;;17.80;70.50;;;;;;10396567;28;20222;-69
2022/01/03 12:59:15;;;;;;;3.17;0.90;;;17.80;70.60;;;;;;10380158;28;20208;-67
2022/01/03 13:04:47;;;;;;;2.83;1.10;;;17.80;70.70;;;;;;10389092;28;20210;-66
2022/01/03 13:10:17;;;;;;;2.80;1.00;;;17.80;70.70;;;;;;10386376;28;20314;-66
2022/01/03 13:15:39;;;;;;;2.63;0.93;;;17.70;70.80;;;;;;10387306;28;20206;-66
2022/01/03 13:21:01;;;;;;;4.30;1.20;;;17.70;70.90;;;;;;10381928;28;20218;-67
2022/01/03 13:26:27;;;;;;;3.47;0.83;;;17.70;70.90;;;;;;10364907;28;20186;-67
2022/01/03 13:31:49;;;;;;;5.90;1.27;;;17.70;70.90;;;;;;10387834;28;20229;-67
2022/01/03 13:37:11;;;;;;;2.70;0.93;;;17.70;70.90;;;;;;10372497;28;20809;-66
2022/01/03 13:42:42;;;;;;;3.07;0.90;;;17.70;71.00;;;;;;10386526;28;20233;-67
2022/01/03 13:53:52;;;;;;;2.50;1.03;;;17.60;71.00;;;;;;10381284;28;20232;-67
2022/01/03 13:59:16;;;;;;;3.13;1.03;;;17.70;71.00;;;;;;10371520;28;20205;-66
2022/01/03 14:04:38;;;;;;;3.03;1.07;;;17.70;71.00;;;;;;10391971;28;20210;-67
2022/01/03 14:10:01;;;;;;;3.67;1.20;;;17.70;71.00;;;;;;10392891;28;20204;-67
2022/01/03 14:15:25;;;;;;;3.47;1.07;;;17.70;71.00;;;;;;10372800;28;20249;-66
2022/01/03 14:20:47;;;;;;;4.27;1.17;;;17.70;70.90;;;;;;10388015;28;20195;-66
2022/01/03 14:26:14;;;;;;;2.63;0.70;;;17.70;71.00;;;;;;10387730;28;20194;-67
2022/01/03 14:31:46;;;;;;;3.03;1.00;;;17.70;70.90;;;;;;10393237;28;20592;-67
2022/01/03 14:37:08;;;;;;;2.00;0.80;;;17.60;70.70;;;;;;10372910;28;20213;-66
2022/01/03 14:42:34;;;;;;;2.73;1.00;;;17.70;70.90;;;;;;10374783;28;20214;-67
2022/01/03 14:48:02;;;;;;;3.13;1.15;;;17.70;70.90;;;;;;10386844;28;20425;-70
2022/01/03 14:53:28;;;;;;;2.30;1.20;;;18.60;67.40;;;;;;10368461;28;20437;-69
2022/01/03 14:58:50;;;;;;;2.37;1.00;;;19.00;66.10;;;;;;10370992;28;20849;-69
2022/01/03 15:04:14;;;;;;;4.10;1.07;;;18.20;68.80;;;;;;10375666;28;20611;-67
2022/01/03 15:09:36;;;;;;;4.13;1.30;;;18.00;70.00;;;;;;10382243;28;20589;-67
2022/01/03 15:14:58;;;;;;;3.73;1.20;;;17.90;70.00;;;;;;10370114;28;20218;-67
2022/01/03 15:20:23;;;;;;;3.33;0.90;;;17.80;68.90;;;;;;10390508;28;20194;-67
2022/01/03 15:25:45;;;;;;;3.13;1.10;;;17.80;70.00;;;;;;10393882;28;20658;-67
2022/01/03 15:31:07;;;;;;;3.00;0.90;;;17.70;70.40;;;;;;10375094;28;20697;-67
2022/01/03 15:36:31;;;;;;;2.67;1.10;;;17.70;70.60;;;;;;10366388;28;20226;-66
2022/01/03 15:41:53;;;;;;;2.27;1.20;;;17.70;70.60;;;;;;10369285;28;20210;-67
2022/01/03 15:47:15;;;;;;;3.63;1.10;;;17.70;70.70;;;;;;10401338;28;20814;-68
2022/01/03 15:52:38;;;;;;;1.70;0.80;;;17.70;70.70;;;;;;10394722;28;20225;-66
2022/01/03 15:58:00;;;;;;;1.80;0.90;;;17.70;70.70;;;;;;10395275;28;20202;-70
2022/01/03 16:03:23;;;;;;;2.27;1.03;;;17.70;70.70;;;;;;10387261;28;20214;-70
2022/01/03 16:08:46;;;;;;;2.30;1.07;;;17.70;70.80;;;;;;10386454;28;20190;-70
2022/01/03 16:14:09;;;;;;;1.67;0.90;;;17.80;71.00;;;;;;10400562;28;20228;-69
2022/01/03 16:19:31;;;;;;;2.27;1.17;;;17.80;70.90;;;;;;10371202;28;20288;-69
2022/01/03 16:24:55;;;;;;;4.97;1.30;;;17.80;70.70;;;;;;10366181;28;20214;-67
2022/01/03 16:30:19;;;;;;;5.27;1.57;;;17.80;70.70;;;;;;10388531;28;20198;-67
2022/01/03 16:35:41;;;;;;;3.77;1.10;;;17.80;70.70;;;;;;10447163;22;20593;-68
2022/01/03 16:41:04;;;;;;;2.17;0.90;;;17.80;70.80;;;;;;10445007;28;20221;-66
2022/01/03 16:46:27;;;;;;;2.63;0.83;;;17.80;70.80;;;;;;10460410;28;20264;-66
2022/01/03 16:51:49;;;;;;;2.93;0.90;;;17.80;70.90;;;;;;10462057;28;20221;-65
2022/01/03 16:57:12;;;;;;;2.00;0.80;;;17.80;71.00;;;;;;10450118;28;20574;-65
2022/01/03 17:02:38;;;;;;;3.10;0.90;;;17.80;70.90;;;;;;10450719;28;20197;-66
2022/01/03 17:08:00;;;;;;;2.83;0.97;;;17.80;70.90;;;;;;10453104;28;20227;-67
2022/01/03 17:13:24;;;;;;;3.03;1.20;;;17.80;70.90;;;;;;10446794;28;20222;-67
2022/01/03 17:18:46;;;;;;;2.60;1.10;;;17.90;70.90;;;;;;10432682;28;20671;-65
2022/01/03 17:24:08;;;;;;;3.07;1.23;;;17.90;70.90;;;;;;10449086;28;20193;-66
2022/01/03 17:29:32;;;;;;;2.97;1.30;;;17.80;70.80;;;;;;10450273;28;20225;-66
2022/01/03 17:34:54;;;;;;;3.57;1.10;;;17.80;70.90;;;;;;10450694;28;20291;-66
2022/01/03 17:40:17;;;;;;;2.83;1.03;;;17.80;70.90;;;;;;10458642;28;20217;-67
2022/01/03 17:45:42;;;;;;;2.10;1.03;;;17.70;71.00;;;;;;10436148;28;20196;-66
2022/01/03 17:51:04;;;;;;;3.10;0.93;;;17.80;71.10;;;;;;10432807;28;20716;-67
2022/01/03 17:56:27;;;;;;;2.40;1.10;;;17.70;71.10;;;;;;10453541;28;20212;-67
2022/01/03 18:01:50;;;;;;;2.17;0.97;;;17.80;71.20;;;;;;10448757;28;20574;-67
2022/01/03 18:07:14;;;;;;;2.30;1.23;;;17.70;71.70;;;;;;10462313;28;20200;-66
2022/01/03 18:12:36;;;;;;;2.20;1.00;;;17.70;71.20;;;;;;10454478;28;20224;-67
2022/01/03 18:18:00;;;;;;;1.77;0.90;;;17.80;71.30;;;;;;10447741;28;20221;-66
2022/01/03 18:23:22;;;;;;;2.77;1.10;;;17.80;71.30;;;;;;10474736;28;20423;-66
2022/01/03 18:28:45;;;;;;;2.10;1.17;;;18.10;70.10;;;;;;10479983;28;20212;-67
2022/01/03 18:34:08;;;;;;;2.57;1.10;;;17.90;70.70;;;;;;10473340;28;20232;-67
2022/01/03 18:39:31;;;;;;;2.43;1.30;;;17.90;71.00;;;;;;10427651;28;20226;-67
2022/01/03 18:44:53;;;;;;;2.40;0.93;;;17.90;71.00;;;;;;10424873;28;20204;-67
2022/01/03 18:50:16;;;;;;;1.60;0.90;;;17.90;71.10;;;;;;10448648;28;20232;-65
2022/01/03 18:55:39;;;;;;;2.87;1.37;;;17.90;71.00;;;;;;10449706;28;20245;-64
2022/01/03 19:01:01;;;;;;;3.43;1.10;;;17.90;71.00;;;;;;10447356;28;20233;-66
2022/01/03 19:06:25;;;;;;;2.70;1.10;;;17.90;70.90;;;;;;10452064;28;20288;-65
2022/01/03 19:11:47;;;;;;;2.57;0.90;;;17.90;70.90;;;;;;10451166;28;20212;-66
2022/01/03 19:17:10;;;;;;;2.27;1.00;;;17.90;70.80;;;;;;10449753;28;20213;-66
2022/01/03 19:22:34;;;;;;;1.90;0.83;;;17.90;70.80;;;;;;10449625;28;20201;-65
2022/01/03 19:27:56;;;;;;;2.90;1.40;;;17.90;70.70;;;;;;10447882;28;20225;-67
2022/01/03 19:39:00;;;;;;;3.20;1.13;;;17.90;70.70;;;;;;10425150;28;20209;-66
2022/01/03 19:44:24;;;;;;;2.27;1.33;;;17.90;70.80;;;;;;10439829;28;20570;-67
2022/01/03 19:49:46;;;;;;;2.10;1.20;;;17.90;70.90;;;;;;10447661;28;20217;-66
2022/01/03 19:55:10;;;;;;;2.37;1.30;;;17.90;70.90;;;;;;10439612;28;20213;-66
2022/01/03 20:00:32;;;;;;;3.83;1.47;;;17.90;70.90;;;;;;10445902;28;20204;-66
2022/01/03 20:05:55;;;;;;;3.10;1.23;;;17.90;70.80;;;;;;10485301;28;20204;-66
2022/01/03 20:11:19;;;;;;;3.83;1.53;;;17.90;70.70;;;;;;10444914;28;21019;-66
2022/01/03 20:16:41;;;;;;;3.50;1.50;;;17.90;70.70;;;;;;10449490;28;20978;-66
2022/01/03 20:22:04;;;;;;;3.20;1.30;;;17.90;70.70;;;;;;10450034;28;20223;-66
2022/01/03 20:27:27;;;;;;;3.40;1.83;;;17.90;70.70;;;;;;10454286;28;20193;-65
2022/01/03 20:32:49;;;;;;;5.20;1.50;;;17.90;70.60;;;;;;10453216;28;20204;-68
2022/01/03 20:38:11;;;;;;;3.03;1.37;;;17.90;70.60;;;;;;10450399;28;20216;-68
2022/01/03 20:43:36;;;;;;;2.70;1.33;;;17.90;70.60;;;;;;10453085;28;20193;-68
2022/01/03 20:48:58;;;;;;;2.77;1.40;;;17.90;70.50;;;;;;10430527;28;20682;-68
2022/01/03 20:54:21;;;;;;;3.77;1.40;;;17.90;70.50;;;;;;10433894;28;20221;-67
2022/01/03 20:59:44;;;;;;;4.10;1.13;;;17.90;70.50;;;;;;10444410;28;21529;-68
2022/01/03 21:05:07;;;;;;;2.67;1.17;;;17.90;70.50;;;;;;10444541;28;20204;-66
2022/01/03 21:10:31;;;;;;;2.23;1.23;;;17.90;70.50;;;;;;10444309;28;20582;-66
2022/01/03 21:15:54;;;;;;;1.77;1.30;;;17.90;70.50;;;;;;10448115;28;20217;-66
2022/01/03 21:21:17;;;;;;;2.90;1.57;;;17.90;70.40;;;;;;10444752;28;20230;-66
2022/01/03 21:26:39;;;;;;;2.97;1.47;;;17.80;70.30;;;;;;10446225;28;20193;-66
2022/01/03 21:32:03;;;;;;;3.10;1.40;;;17.90;70.40;;;;;;10444940;28;20299;-67
2022/01/03 21:37:25;;;;;;;2.83;1.20;;;17.90;70.40;;;;;;10444482;28;20217;-67
2022/01/03 21:42:48;;;;;;;1.83;1.27;;;17.80;70.30;;;;;;10449298;28;20209;-67
2022/01/03 21:48:11;;;;;;;2.17;1.17;;;17.90;70.30;;;;;;10450633;28;20611;-66
2022/01/03 21:53:35;;;;;;;3.07;1.17;;;17.80;70.30;;;;;;10450053;28;20223;-66
2022/01/03 21:58:57;;;;;;;2.30;1.10;;;17.90;70.40;;;;;;10449521;28;20221;-65
2022/01/03 22:04:22;;;;;;;2.20;0.90;;;17.80;70.30;;;;;;10435868;28;20204;-65
2022/01/03 22:09:44;;;;;;;2.77;1.20;;;17.90;70.30;;;;;;10444095;28;20221;-65
2022/01/03 22:15:08;;;;;;;1.83;1.10;;;17.80;70.30;;;;;;10446631;28;20225;-65
2022/01/03 22:20:31;;;;;;;1.60;0.93;;;17.80;70.30;;;;;;10452736;28;20215;-66
2022/01/03 22:25:53;;;;;;;2.03;1.27;;;17.80;70.30;;;;;;10464284;28;20200;-66
2022/01/03 22:31:17;;;;;;;2.17;1.20;;;17.80;70.20;;;;;;10464285;28;20219;-67
2022/01/03 22:36:40;;;;;;;1.17;1.00;;;17.80;70.20;;;;;;10409621;22;20416;-69
2022/01/03 22:42:02;;;;;;;2.17;1.00;;;17.80;70.20;;;;;;10385026;28;20202;-69
2022/01/03 22:47:24;;;;;;;2.47;1.07;;;17.80;70.20;;;;;;10356707;28;20692;-69
2022/01/03 22:52:48;;;;;;;1.33;1.10;;;17.80;70.20;;;;;;10381886;28;20229;-69
2022/01/03 22:58:10;;;;;;;3.20;1.00;;;17.80;70.20;;;;;;10343917;28;20202;-67
2022/01/03 23:03:32;;;;;;;2.90;1.40;;;17.80;70.20;;;;;;10342271;28;20690;-68
2022/01/03 23:08:55;;;;;;;2.50;1.10;;;17.80;70.20;;;;;;10350689;28;20202;-69
2022/01/03 23:14:18;;;;;;;2.43;0.97;;;17.80;70.10;;;;;;10356920;28;20227;-69
2022/01/03 23:19:40;;;;;;;1.40;0.73;;;17.80;70.20;;;;;;10341172;28;20207;-69
2022/01/03 23:25:04;;;;;;;1.63;1.00;;;17.70;70.10;;;;;;10340846;28;20234;-69
2022/01/03 23:30:27;;;;;;;1.77;1.10;;;17.80;70.10;;;;;;10341050;28;20685;-69
2022/01/03 23:35:49;;;;;;;1.60;0.97;;;17.70;70.10;;;;;;10333177;28;20230;-69
2022/01/03 23:41:13;;;;;;;1.83;1.10;;;17.80;70.10;;;;;;10342289;28;20199;-69
2022/01/03 23:46:35;;;;;;;1.40;0.80;;;17.70;70.00;;;;;;10374475;28;20211;-69
2022/01/03 23:51:58;;;;;;;1.83;1.00;;;17.80;70.10;;;;;;10375275;28;20206;-69
2022/01/03 23:57:21;;;;;;;1.70;0.93;;;17.70;70.00;;;;;;10359690;28;20218;-67
